Time;durP1;ratioP1;P1;durP2;ratioP2;P2;SDS_P1;SDS_P2;PMS_P1;PMS_P2;Temp;Humidity;BMP_temperature;BMP_pressure;BME280_temperature;BME280_humidity;BME280_pressure;Samples;Min_cycle;Max_cycle;Signal;HPM_P1;HPM_P2
2021/09/26 00:00:24;;;;;;;7.80;6.13;;;11.30;99.90;10.40;97063.00;;;;5137504;27;20475;-66
2021/09/26 00:03:13;;;;;;;10.50;6.77;;;11.20;99.90;10.60;97061.00;;;;5130774;27;20202;-66
2021/09/26 00:06:02;;;;;;;7.23;6.53;;;11.10;99.90;10.70;97065.00;;;;5143029;27;20202;-66
2021/09/26 00:08:50;;;;;;;8.33;6.97;;;11.10;99.90;10.60;97053.00;;;;5129487;27;20579;-66
2021/09/26 00:11:40;;;;;;;6.97;6.20;;;11.10;99.90;10.50;97050.00;;;;5140130;27;20221;-66
2021/09/26 00:14:30;;;;;;;9.93;8.13;;;11.10;99.90;10.70;97054.00;;;;5146683;27;20197;-66
2021/09/26 00:17:20;;;;;;;16.37;9.20;;;11.10;99.90;10.80;97055.00;;;;5146947;27;20213;-65
2021/09/26 00:20:10;;;;;;;8.80;7.90;;;11.10;99.90;11.00;97059.00;;;;5146460;27;20205;-66
2021/09/26 00:22:59;;;;;;;8.77;7.13;;;11.20;99.90;10.90;97051.00;;;;5146592;27;20209;-67
2021/09/26 00:25:51;;;;;;;13.87;8.87;;;11.20;99.90;10.70;97047.00;;;;5149033;27;20751;-66
2021/09/26 00:28:40;;;;;;;9.27;7.53;;;11.20;99.90;11.00;97056.00;;;;5151418;27;20494;-66
2021/09/26 00:31:29;;;;;;;9.90;7.13;;;11.20;99.90;10.90;97051.00;;;;5147775;27;20228;-66
2021/09/26 00:34:19;;;;;;;8.97;7.60;;;11.20;99.90;10.90;97043.00;;;;5147534;27;20227;-66
2021/09/26 00:37:08;;;;;;;8.23;7.33;;;11.20;99.90;11.00;97043.00;;;;5137814;27;20573;-67
2021/09/26 00:39:57;;;;;;;8.07;7.23;;;11.20;99.90;11.00;97042.00;;;;5149817;27;20193;-65
2021/09/26 00:42:46;;;;;;;9.13;8.17;;;11.30;99.90;10.90;97048.00;;;;5151196;27;20198;-65
2021/09/26 00:45:35;;;;;;;8.03;7.07;;;11.20;99.90;11.30;97042.00;;;;5141205;27;20494;-66
2021/09/26 00:48:24;;;;;;;11.43;7.00;;;11.30;99.90;11.10;97039.00;;;;5136417;27;20203;-67
2021/09/26 00:51:18;;;;;;;8.90;6.47;;;11.40;99.90;11.10;97039.00;;;;5149398;27;20244;-66
2021/09/26 00:54:07;;;;;;;6.97;6.27;;;11.30;99.90;11.00;97037.00;;;;5149892;27;20208;-65
2021/09/26 00:56:58;;;;;;;7.93;6.57;;;11.30;99.90;10.90;97037.00;;;;5140666;27;20275;-67
2021/09/26 00:59:47;;;;;;;7.60;6.60;;;11.20;99.90;10.70;97025.00;;;;5137624;27;20201;-66
2021/09/26 01:02:36;;;;;;;8.80;6.73;;;11.20;99.90;10.40;97040.00;;;;5151286;27;20213;-67
2021/09/26 01:05:27;;;;;;;6.53;5.93;;;11.00;99.90;10.30;97036.00;;;;5142947;27;20209;-65
2021/09/26 01:08:32;;;;;;;8.57;7.40;;;10.90;99.90;10.50;97029.00;;;;5139485;27;20197;-65
2021/09/26 01:11:33;;;;;;;6.40;5.80;;;10.90;99.90;10.30;97019.00;;;;5148450;27;20232;-66
2021/09/26 01:14:27;;;;;;;9.50;7.10;;;10.80;99.90;10.50;97026.00;;;;5117022;27;20202;-67
2021/09/26 01:17:25;;;;;;;7.43;6.73;;;10.80;99.90;10.40;97031.00;;;;5132572;27;20197;-66
2021/09/26 01:20:43;;;;;;;9.77;7.13;;;10.80;99.90;10.40;97025.00;;;;5131565;27;20202;-67
2021/09/26 01:24:30;;;;;;;8.97;7.40;;;10.80;99.90;10.30;97021.00;;;;5150669;27;20193;-66
2021/09/26 01:27:42;;;;;;;8.30;6.17;;;10.80;99.90;10.20;97022.00;;;;5137557;27;20934;-68
2021/09/26 01:30:38;;;;;;;8.03;6.60;;;10.70;99.90;10.50;97019.00;;;;5148110;27;20490;-66
2021/09/26 01:33:31;;;;;;;7.57;6.80;;;10.80;99.90;10.50;97010.00;;;;5150384;27;20212;-66
2021/09/26 01:36:26;;;;;;;9.20;7.10;;;10.80;99.90;10.60;97024.00;;;;5128999;27;20201;-67
2021/09/26 01:39:23;;;;;;;9.87;6.93;;;10.90;99.90;11.00;97018.00;;;;5120912;27;20202;-65
2021/09/26 01:42:18;;;;;;;8.57;6.20;;;11.00;99.90;11.10;97016.00;;;;5111280;28;20218;-68
2021/09/26 01:45:13;;;;;;;10.77;7.63;;;11.20;99.90;11.20;97014.00;;;;5108807;28;20274;-67
2021/09/26 01:48:11;;;;;;;12.47;7.73;;;11.30;99.90;11.30;97008.00;;;;5125785;27;20228;-66
2021/09/26 01:51:03;;;;;;;10.03;6.77;;;11.40;99.90;10.70;97004.00;;;;5120105;27;20960;-65
2021/09/26 01:53:52;;;;;;;7.30;6.53;;;11.30;99.90;10.80;97008.00;;;;5128156;27;20198;-66
2021/09/26 01:56:43;;;;;;;7.20;6.53;;;11.20;99.90;10.30;96996.00;;;;5136468;27;20201;-66
2021/09/26 01:59:34;;;;;;;9.10;6.27;;;11.00;99.90;10.30;96997.00;;;;5149931;27;20215;-67
2021/09/26 02:02:26;;;;;;;8.23;7.33;;;10.90;99.90;10.40;96991.00;;;;5148922;27;20229;-67
2021/09/26 02:05:19;;;;;;;10.60;6.30;;;10.90;99.90;10.60;97006.00;;;;5139513;27;20257;-65
2021/09/26 02:08:08;;;;;;;8.20;6.23;;;10.90;99.90;10.60;96990.00;;;;5139072;27;20193;-66
2021/09/26 02:10:59;;;;;;;8.80;6.13;;;10.90;99.90;10.50;96998.00;;;;5148821;27;20217;-66
2021/09/26 02:13:50;;;;;;;6.47;5.70;;;10.90;99.90;10.50;97001.00;;;;5150074;27;20223;-66
2021/09/26 02:16:39;;;;;;;9.67;6.80;;;10.80;99.90;10.60;96997.00;;;;5149036;27;20204;-67
2021/09/26 02:19:29;;;;;;;7.37;6.60;;;10.80;99.90;10.60;96998.00;;;;5149000;27;20678;-66
2021/09/26 02:22:20;;;;;;;9.33;6.93;;;10.90;99.90;10.80;97003.00;;;;5148707;27;20596;-66
2021/09/26 02:25:11;;;;;;;11.83;6.90;;;10.90;99.90;11.10;96998.00;;;;5148239;27;20209;-66
2021/09/26 02:28:00;;;;;;;9.30;7.07;;;11.00;99.90;11.30;97001.00;;;;5149437;27;20208;-66
2021/09/26 02:30:50;;;;;;;9.80;7.60;;;11.20;99.90;11.00;96996.00;;;;5135001;27;20236;-66
2021/09/26 02:33:40;;;;;;;7.23;6.53;;;11.20;99.90;10.60;96990.00;;;;5149738;27;20225;-65
2021/09/26 02:36:29;;;;;;;6.90;5.23;;;11.10;99.90;10.30;97007.00;;;;5144352;27;20208;-66
2021/09/26 02:39:20;;;;;;;7.00;5.53;;;10.90;99.90;10.20;97005.00;;;;5148133;27;20194;-67
2021/09/26 02:42:18;;;;;;;6.57;5.97;;;10.80;99.90;10.30;97003.00;;;;5137119;27;20217;-66
2021/09/26 02:45:13;;;;;;;9.13;6.30;;;10.80;99.90;10.30;97012.00;;;;5134046;27;20673;-67
2021/09/26 02:48:07;;;;;;;8.23;6.23;;;10.70;99.90;10.60;96998.00;;;;5148907;27;20585;-66
2021/09/26 02:50:57;;;;;;;8.10;6.53;;;10.80;99.90;10.60;97007.00;;;;5146503;27;20233;-66
2021/09/26 02:53:48;;;;;;;8.10;6.90;;;10.80;99.90;10.30;97001.00;;;;5148447;27;20221;-66
2021/09/26 02:56:38;;;;;;;6.97;6.23;;;10.80;99.90;10.30;97010.00;;;;5148506;27;20365;-67
2021/09/26 02:59:28;;;;;;;6.73;5.83;;;10.80;99.90;10.30;97002.00;;;;5148824;27;20224;-65
2021/09/26 03:02:17;;;;;;;6.83;5.93;;;10.70;99.90;10.30;97004.00;;;;5149367;27;20221;-67
2021/09/26 03:05:08;;;;;;;6.40;5.43;;;10.70;99.90;10.20;97007.00;;;;5137179;27;20230;-66
2021/09/26 03:07:57;;;;;;;7.03;6.30;;;10.70;99.90;10.20;97009.00;;;;5135474;27;20569;-68
2021/09/26 03:10:50;;;;;;;7.90;6.30;;;10.70;99.90;10.20;97012.00;;;;5147000;27;20232;-66
2021/09/26 03:13:40;;;;;;;8.50;5.93;;;10.60;99.90;10.20;97004.00;;;;5148764;27;20213;-67
2021/09/26 03:16:29;;;;;;;9.93;5.40;;;10.60;99.90;10.30;97001.00;;;;5149289;27;20209;-68
2021/09/26 03:19:18;;;;;;;6.57;5.83;;;10.60;99.90;10.40;96998.00;;;;5135322;27;20208;-69
2021/09/26 03:22:07;;;;;;;8.20;6.40;;;10.60;99.90;10.40;96991.00;;;;5145739;27;20252;-67
2021/09/26 03:24:56;;;;;;;7.23;6.20;;;10.70;99.90;10.50;96984.00;;;;5142732;27;20205;-66
2021/09/26 03:27:45;;;;;;;7.13;6.43;;;10.70;99.90;10.60;96983.00;;;;5148144;27;20201;-68
2021/09/26 03:30:36;;;;;;;7.70;6.60;;;10.70;99.90;10.80;96992.00;;;;5146822;27;20205;-67
2021/09/26 03:33:25;;;;;;;8.20;6.17;;;10.80;99.90;10.60;96987.00;;;;5147724;27;20235;-66
2021/09/26 03:36:14;;;;;;;5.83;5.13;;;10.80;99.90;10.60;96985.00;;;;5129757;27;20526;-68
2021/09/26 03:39:03;;;;;;;5.70;4.63;;;10.80;99.90;10.50;96990.00;;;;5135752;27;20209;-64
2021/09/26 03:41:52;;;;;;;5.20;4.70;;;10.80;99.90;10.70;96986.00;;;;5140654;27;20229;-66
2021/09/26 03:44:41;;;;;;;7.80;5.90;;;10.80;99.90;10.60;96988.00;;;;5143898;27;20204;-66
2021/09/26 03:47:32;;;;;;;8.67;6.20;;;9.00;99.90;10.60;96979.00;;;;5147821;27;20208;-67
2021/09/26 03:50:21;;;;;;;11.90;6.17;;;10.90;99.90;10.80;96975.00;;;;5146537;27;20208;-66
2021/09/26 03:53:10;;;;;;;5.63;5.07;;;10.90;99.90;10.70;96984.00;;;;5148298;27;20217;-67
2021/09/26 03:55:59;;;;;;;5.83;5.03;;;10.90;99.90;10.50;96976.00;;;;5147904;27;20201;-66
2021/09/26 03:58:48;;;;;;;5.90;4.93;;;10.90;99.90;10.40;96977.00;;;;5148331;27;20596;-67
2021/09/26 04:01:37;;;;;;;5.60;5.10;;;10.90;99.90;10.20;96974.00;;;;5147875;27;20221;-66
2021/09/26 04:04:27;;;;;;;8.27;4.83;;;10.70;99.90;10.20;96976.00;;;;5142792;27;20663;-66
2021/09/26 04:07:16;;;;;;;5.20;4.70;;;10.70;99.90;10.00;96982.00;;;;5141508;27;20274;-66
2021/09/26 04:10:09;;;;;;;8.70;5.27;;;10.60;99.90;10.10;96973.00;;;;5136946;27;20208;-67
2021/09/26 04:12:58;;;;;;;5.57;5.00;;;10.50;99.90;10.20;96979.00;;;;5148510;27;20225;-67
2021/09/26 04:15:46;;;;;;;8.13;7.30;;;10.00;99.90;10.10;96973.00;;;;5146975;27;20197;-66
2021/09/26 04:18:35;;;;;;;6.40;5.23;;;10.50;99.90;9.90;96979.00;;;;5147364;27;20209;-67
2021/09/26 04:21:26;;;;;;;5.83;5.17;;;10.40;99.90;9.90;96974.00;;;;5147077;27;20299;-67
2021/09/26 04:24:15;;;;;;;5.40;4.90;;;10.30;99.90;10.10;96979.00;;;;5146685;27;20381;-67
2021/09/26 04:27:04;;;;;;;8.80;5.50;;;10.30;99.90;10.00;96975.00;;;;5147607;27;20429;-67
2021/09/26 04:29:54;;;;;;;6.87;5.50;;;10.30;99.90;10.10;96979.00;;;;5144606;27;20614;-66
2021/09/26 04:32:43;;;;;;;5.43;4.33;;;10.40;99.90;9.90;96977.00;;;;5129907;27;20699;-67
2021/09/26 04:35:32;;;;;;;5.67;5.17;;;10.30;99.90;9.80;96979.00;;;;5137617;27;20213;-66
2021/09/26 04:38:22;;;;;;;6.47;4.97;;;10.30;99.90;9.90;96978.00;;;;5141828;27;20196;-67
2021/09/26 04:41:11;;;;;;;6.27;5.67;;;10.20;99.90;10.00;96975.00;;;;5145317;27;20703;-67
2021/09/26 04:44:00;;;;;;;6.00;5.40;;;10.20;99.90;10.00;96972.00;;;;5147001;27;20197;-66
2021/09/26 04:46:49;;;;;;;6.40;5.43;;;10.30;99.90;9.90;96971.00;;;;5145506;27;20656;-66
2021/09/26 04:49:38;;;;;;;5.67;4.73;;;10.20;99.90;9.90;96975.00;;;;5145943;27;20222;-66
2021/09/26 04:52:27;;;;;;;7.07;5.73;;;10.30;99.90;10.20;96982.00;;;;5142723;27;20772;-66
2021/09/26 04:55:20;;;;;;;5.97;5.37;;;10.30;99.90;10.30;96985.00;;;;5133738;27;20527;-66
2021/09/26 04:58:10;;;;;;;7.10;5.47;;;10.40;99.90;10.40;96970.00;;;;5146855;27;20662;-66
2021/09/26 05:00:59;;;;;;;6.03;5.07;;;10.50;99.90;10.30;96980.00;;;;5137602;27;20226;-66
2021/09/26 05:03:48;;;;;;;7.10;5.43;;;10.60;99.90;10.40;96982.00;;;;5135081;27;20579;-67
2021/09/26 05:06:37;;;;;;;5.07;4.40;;;10.60;99.90;10.30;96991.00;;;;5136778;27;20206;-66
2021/09/26 05:09:26;;;;;;;5.30;4.80;;;10.60;99.90;9.80;96998.00;;;;5128329;27;20206;-66
2021/09/26 05:12:16;;;;;;;6.80;4.47;;;10.50;99.90;9.90;97000.00;;;;5140938;27;20216;-66
2021/09/26 05:15:06;;;;;;;4.37;3.93;;;10.40;99.90;9.80;97003.00;;;;5132225;27;20229;-66
2021/09/26 05:17:56;;;;;;;10.10;4.67;;;10.30;99.90;10.10;97004.00;;;;5138680;27;20201;-66
2021/09/26 05:20:45;;;;;;;5.07;4.57;;;10.40;99.90;10.40;97002.00;;;;5147706;27;20600;-67
2021/09/26 05:23:35;;;;;;;6.17;4.87;;;10.50;99.90;10.60;96999.00;;;;5151175;27;20583;-67
2021/09/26 05:26:24;;;;;;;7.03;5.20;;;10.60;99.90;10.80;97012.00;;;;5150087;27;20205;-66
2021/09/26 05:29:14;;;;;;;10.73;4.20;;;10.80;99.90;10.80;97006.00;;;;5139125;27;20201;-66
2021/09/26 05:32:03;;;;;;;7.13;4.90;;;10.90;99.90;10.70;97003.00;;;;5141228;27;20237;-64
2021/09/26 05:34:52;;;;;;;5.20;4.23;;;11.00;99.90;10.10;97008.00;;;;5143002;27;20225;-64
2021/09/26 05:37:41;;;;;;;5.80;4.57;;;10.90;99.90;10.00;97009.00;;;;5135431;27;20209;-66
2021/09/26 05:40:30;;;;;;;4.93;4.23;;;10.70;99.90;10.10;97013.00;;;;5129314;27;20577;-65
2021/09/26 05:43:19;;;;;;;5.10;4.13;;;10.60;99.90;10.30;97007.00;;;;5132111;27;20201;-65
2021/09/26 05:46:09;;;;;;;5.63;4.53;;;10.70;99.90;10.20;97012.00;;;;5137489;27;20221;-65
2021/09/26 05:48:58;;;;;;;6.73;4.10;;;10.70;99.90;10.40;97000.00;;;;5131192;27;20205;-64
2021/09/26 05:51:47;;;;;;;4.37;3.97;;;10.70;99.90;10.60;97001.00;;;;5141347;27;20233;-65
2021/09/26 05:54:37;;;;;;;5.17;4.67;;;10.80;99.90;10.70;97007.00;;;;5129995;27;20224;-65
2021/09/26 05:57:26;;;;;;;5.30;4.13;;;10.90;99.90;10.60;97006.00;;;;5141680;27;20536;-65
2021/09/26 06:00:17;;;;;;;5.27;4.30;;;11.00;99.90;10.40;96993.00;;;;5139939;27;20202;-65
2021/09/26 06:03:07;;;;;;;7.30;4.60;;;10.90;99.90;10.70;96988.00;;;;5136809;27;20595;-64
2021/09/26 06:05:56;;;;;;;5.10;4.53;;;11.00;99.90;10.70;96999.00;;;;5141140;27;20270;-65
2021/09/26 06:08:45;;;;;;;7.00;4.70;;;11.00;99.90;10.80;96996.00;;;;5129619;27;20194;-66
2021/09/26 06:11:34;;;;;;;3.57;3.27;;;11.10;99.90;10.70;96989.00;;;;5135330;27;20232;-65
2021/09/26 06:14:23;;;;;;;5.30;4.80;;;11.10;99.90;11.00;96990.00;;;;5133865;27;20218;-64
2021/09/26 06:17:12;;;;;;;5.83;4.50;;;11.20;99.90;11.20;96992.00;;;;5136881;27;20744;-66
2021/09/26 06:20:04;;;;;;;4.83;4.43;;;11.30;99.90;11.40;96991.00;;;;5135031;27;20267;-66
2021/09/26 06:22:54;;;;;;;5.30;4.10;;;11.40;99.90;11.50;96996.00;;;;5129945;27;20274;-65
2021/09/26 06:25:43;;;;;;;6.33;4.67;;;11.60;99.90;11.60;97001.00;;;;5130642;27;20197;-65
2021/09/26 06:28:32;;;;;;;4.73;4.30;;;11.70;99.90;11.70;97003.00;;;;5141488;27;20202;-64
2021/09/26 06:31:21;;;;;;;5.00;4.57;;;11.80;99.90;11.90;97014.00;;;;5136840;27;20217;-64
2021/09/26 06:34:10;;;;;;;5.30;4.37;;;11.90;99.90;12.00;97008.00;;;;5130423;27;20229;-66
2021/09/26 06:37:00;;;;;;;5.53;5.03;;;12.10;99.90;11.90;97016.00;;;;5127841;27;20202;-64
2021/09/26 06:39:50;;;;;;;4.83;4.33;;;12.10;99.90;12.00;97014.00;;;;5135645;27;20205;-63
2021/09/26 06:42:39;;;;;;;4.37;3.97;;;12.20;99.90;12.30;97007.00;;;;5139325;27;20727;-64
2021/09/26 06:45:28;;;;;;;5.40;4.93;;;12.30;99.90;12.30;97015.00;;;;5133435;27;20234;-64
2021/09/26 06:48:17;;;;;;;7.33;4.43;;;12.40;99.90;12.40;97019.00;;;;5128607;27;20240;-64
2021/09/26 06:51:06;;;;;;;5.63;3.63;;;12.50;99.90;12.80;97024.00;;;;5123489;27;20230;-65
2021/09/26 06:53:56;;;;;;;6.03;4.73;;;12.60;99.90;13.20;97020.00;;;;5115088;27;20226;-65
2021/09/26 06:56:46;;;;;;;6.43;5.03;;;12.80;99.90;13.50;97026.00;;;;5107232;27;20199;-64
2021/09/26 06:59:34;;;;;;;5.37;4.87;;;13.10;99.90;13.60;97014.00;;;;5111944;27;20217;-64
2021/09/26 07:02:24;;;;;;;5.27;3.87;;;13.30;99.90;13.50;97025.00;;;;5110457;27;20332;-64
2021/09/26 07:05:13;;;;;;;5.63;5.07;;;13.40;99.90;13.70;97035.00;;;;5111431;27;20270;-64
2021/09/26 07:08:02;;;;;;;5.57;5.03;;;13.80;99.90;13.90;97034.00;;;;5111442;27;20275;-64
2021/09/26 07:10:52;;;;;;;5.37;4.83;;;13.80;99.90;14.00;97032.00;;;;5107068;27;20229;-63
2021/09/26 07:13:41;;;;;;;8.03;5.17;;;13.90;99.90;14.30;97043.00;;;;5115257;27;20202;-65
2021/09/26 07:16:30;;;;;;;5.87;5.00;;;14.00;99.90;14.80;97037.00;;;;5112172;27;20191;-65
2021/09/26 07:19:20;;;;;;;6.87;4.70;;;14.20;99.90;15.20;97035.00;;;;5118254;27;20533;-66
2021/09/26 07:22:08;;;;;;;6.37;5.50;;;14.50;99.90;15.60;97046.00;;;;5124233;27;20214;-65
2021/09/26 07:24:57;;;;;;;5.17;4.63;;;14.80;99.90;15.60;97043.00;;;;5116646;27;20198;-64
2021/09/26 07:27:48;;;;;;;6.03;5.07;;;15.20;99.90;15.70;97049.00;;;;5124213;27;20197;-65
2021/09/26 07:30:37;;;;;;;5.30;4.80;;;15.40;99.90;16.00;97052.00;;;;5118115;27;20201;-65
2021/09/26 07:33:25;;;;;;;6.30;5.30;;;15.60;99.90;16.20;97054.00;;;;5115552;27;20208;-65
2021/09/26 07:36:15;;;;;;;4.37;3.93;;;15.80;99.90;16.40;97062.00;;;;5122249;27;20598;-64
2021/09/26 07:39:04;;;;;;;9.37;5.27;;;16.00;99.90;16.70;97054.00;;;;5113641;27;20198;-64
2021/09/26 07:41:53;;;;;;;6.87;4.97;;;16.20;99.90;16.90;97059.00;;;;5113053;27;20234;-65
2021/09/26 07:44:43;;;;;;;5.43;4.83;;;16.40;99.90;17.10;97062.00;;;;5117909;27;20193;-65
2021/09/26 07:47:33;;;;;;;5.57;4.83;;;16.60;99.90;17.40;97056.00;;;;5115840;27;20198;-65
2021/09/26 07:50:24;;;;;;;5.50;5.00;;;16.80;99.90;17.50;97060.00;;;;5115963;27;20571;-65
2021/09/26 07:53:13;;;;;;;4.93;3.80;;;17.00;99.90;17.60;97066.00;;;;5122005;27;20206;-64
2021/09/26 07:56:03;;;;;;;12.60;5.33;;;17.20;99.90;17.60;97071.00;;;;5111091;27;20695;-65
2021/09/26 07:58:53;;;;;;;6.57;4.87;;;17.30;99.90;17.50;97075.00;;;;5118462;27;20214;-63
2021/09/26 08:01:44;;;;;;;6.53;4.30;;;17.40;99.90;17.50;97084.00;;;;5107828;27;20242;-64
2021/09/26 08:04:33;;;;;;;6.87;4.80;;;17.50;99.90;17.80;97078.00;;;;5114803;27;20198;-63
2021/09/26 08:07:21;;;;;;;5.10;4.67;;;17.60;99.90;18.00;97072.00;;;;5113621;28;20201;-64
2021/09/26 08:10:11;;;;;;;6.73;5.00;;;17.70;99.90;18.10;97064.00;;;;5119447;28;20198;-64
2021/09/26 08:13:01;;;;;;;6.60;4.70;;;17.80;99.90;18.30;97056.00;;;;5116212;28;20191;-65
2021/09/26 08:15:50;;;;;;;5.17;4.67;;;17.90;99.90;18.60;97051.00;;;;5111307;28;20230;-64
2021/09/26 08:18:41;;;;;;;5.03;4.63;;;18.10;99.90;18.80;97054.00;;;;5113385;28;20550;-64
2021/09/26 08:21:29;;;;;;;4.90;4.27;;;18.30;99.90;19.00;97059.00;;;;5111317;28;20612;-64
2021/09/26 08:24:18;;;;;;;5.30;4.80;;;18.50;99.90;19.20;97056.00;;;;5114926;28;20213;-63
2021/09/26 08:27:08;;;;;;;4.17;3.67;;;18.70;99.90;19.50;97058.00;;;;5120169;28;20557;-64
2021/09/26 08:29:57;;;;;;;4.33;3.93;;;18.90;99.90;19.50;97061.00;;;;5109342;28;20209;-63
2021/09/26 08:32:49;;;;;;;6.97;4.57;;;19.10;99.90;19.60;97065.00;;;;5120209;28;20229;-65
2021/09/26 08:35:39;;;;;;;6.43;4.30;;;19.20;99.90;19.80;97068.00;;;;5118222;28;20229;-65
2021/09/26 08:38:28;;;;;;;7.43;4.50;;;19.40;99.90;20.00;97069.00;;;;5109106;28;20206;-64
2021/09/26 08:41:18;;;;;;;5.33;3.87;;;19.50;99.90;20.10;97072.00;;;;5115697;28;20218;-65
2021/09/26 08:44:07;;;;;;;5.70;4.53;;;19.70;99.90;20.30;97062.00;;;;5117025;28;20202;-63
2021/09/26 08:46:58;;;;;;;5.60;4.37;;;19.80;99.90;20.60;97075.00;;;;5099557;27;20195;-64
2021/09/26 08:49:48;;;;;;;3.50;3.20;;;20.00;99.90;20.60;97073.00;;;;5117652;27;20202;-65
2021/09/26 08:52:40;;;;;;;4.93;4.43;;;20.10;99.90;20.80;97071.00;;;;5117781;27;20234;-64
2021/09/26 08:55:29;;;;;;;3.60;3.30;;;20.30;99.90;21.00;97060.00;;;;5123400;27;20241;-64
2021/09/26 08:58:18;;;;;;;6.37;5.07;;;20.40;99.90;21.30;97067.00;;;;5120405;27;20202;-63
2021/09/26 09:01:07;;;;;;;5.00;3.67;;;20.60;99.90;21.40;97055.00;;;;5120631;27;20218;-63
2021/09/26 09:03:56;;;;;;;4.27;3.77;;;20.70;99.90;21.40;97061.00;;;;5120589;27;20690;-63
2021/09/26 09:06:47;;;;;;;3.90;3.40;;;20.90;99.90;21.70;97056.00;;;;5120826;27;20566;-65
2021/09/26 09:09:51;;;;;;;7.03;3.93;;;21.00;99.90;21.90;97059.00;;;;5119576;27;21079;-65
2021/09/26 09:12:40;;;;;;;4.07;3.67;;;21.20;99.90;21.90;97069.00;;;;5114920;27;20225;-65
2021/09/26 09:15:29;;;;;;;5.67;3.57;;;21.40;99.90;22.10;97060.00;;;;5115067;27;20226;-64
2021/09/26 09:18:18;;;;;;;6.50;3.70;;;21.40;99.90;22.40;97060.00;;;;5126281;27;20198;-64
2021/09/26 09:21:20;;;;;;;3.90;3.33;;;21.60;99.90;22.40;97064.00;;;;5120520;27;20610;-64
2021/09/26 09:24:22;;;;;;;4.13;3.73;;;21.80;99.90;22.60;97069.00;;;;5114793;27;20206;-65
2021/09/26 09:27:13;;;;;;;4.07;3.67;;;21.90;99.90;22.60;97065.00;;;;5128525;27;20552;-65
2021/09/26 09:30:03;;;;;;;4.27;3.57;;;22.00;99.90;22.90;97068.00;;;;5113109;27;20210;-65
2021/09/26 09:32:55;;;;;;;3.43;3.13;;;22.10;99.90;23.10;97065.00;;;;5119024;27;20208;-65
2021/09/26 09:35:47;;;;;;;3.67;3.23;;;22.30;99.90;23.30;97057.00;;;;5119123;27;20233;-65
2021/09/26 09:38:38;;;;;;;4.47;3.27;;;22.50;99.90;23.60;97056.00;;;;5115854;27;20212;-64
2021/09/26 09:41:34;;;;;;;5.53;4.23;;;22.70;99.90;23.80;97062.00;;;;5114661;27;20218;-64
2021/09/26 09:44:37;;;;;;;4.27;3.87;;;22.80;99.90;23.40;97057.00;;;;5123986;27;20198;-64
2021/09/26 09:47:26;;;;;;;4.07;3.07;;;23.00;98.40;23.80;97051.00;;;;5112023;27;20213;-64
2021/09/26 09:50:15;;;;;;;4.17;3.70;;;23.20;98.90;24.10;97060.00;;;;5115183;27;20203;-64
2021/09/26 09:53:04;;;;;;;5.43;3.60;;;23.30;98.30;24.50;97052.00;;;;5114357;27;20210;-63
2021/09/26 09:56:11;;;;;;;4.67;4.13;;;23.50;99.30;24.60;97057.00;;;;5127105;27;21191;-64
2021/09/26 09:59:01;;;;;;;4.90;4.40;;;23.60;98.30;24.80;97055.00;;;;5115837;27;20202;-64
2021/09/26 10:01:54;;;;;;;5.20;3.93;;;23.90;97.50;25.10;97052.00;;;;5109063;27;20233;-63
2021/09/26 10:04:45;;;;;;;5.13;4.00;;;24.00;97.50;25.10;97060.00;;;;5118827;27;20250;-64
2021/09/26 10:07:34;;;;;;;7.80;3.73;;;24.30;96.50;25.30;97057.00;;;;5110442;27;20237;-63
2021/09/26 10:10:30;;;;;;;8.00;4.47;;;24.40;96.00;25.50;97063.00;;;;5122316;27;20691;-65
2021/09/26 10:13:19;;;;;;;3.83;3.40;;;24.50;95.50;25.60;97068.00;;;;5123194;27;20652;-64
2021/09/26 10:16:11;;;;;;;4.67;3.13;;;24.60;94.40;25.30;97060.00;;;;5113181;27;20245;-63
2021/09/26 10:19:01;;;;;;;6.20;3.77;;;24.80;92.90;25.70;97065.00;;;;5123084;27;20380;-64
2021/09/26 10:21:52;;;;;;;4.50;3.67;;;24.90;91.10;25.90;97058.00;;;;5119478;27;20228;-64
2021/09/26 10:24:41;;;;;;;5.77;3.73;;;25.10;91.40;25.80;97064.00;;;;5111800;27;20606;-65
2021/09/26 10:27:33;;;;;;;4.63;3.20;;;25.20;88.50;26.30;97068.00;;;;5106849;27;20203;-64
2021/09/26 10:30:25;;;;;;;7.03;3.83;;;25.40;88.20;26.40;97065.00;;;;5120786;27;20793;-64
2021/09/26 10:33:15;;;;;;;6.17;3.83;;;25.60;84.40;26.40;97053.00;;;;5124831;27;20210;-64
2021/09/26 10:36:09;;;;;;;4.80;4.30;;;25.80;83.40;27.10;97053.00;;;;5116758;27;20249;-64
2021/09/26 10:39:00;;;;;;;7.07;3.67;;;26.00;84.40;27.00;97055.00;;;;5121244;27;20217;-64
2021/09/26 10:42:11;;;;;;;4.57;3.40;;;26.30;82.70;26.80;97052.00;;;;5125097;27;20220;-65
2021/09/26 10:45:03;;;;;;;5.60;3.87;;;26.50;79.30;27.10;97048.00;;;;5117585;27;20197;-64
2021/09/26 10:47:54;;;;;;;7.97;4.60;;;26.80;76.90;27.80;97048.00;;;;5115013;27;20207;-66
2021/09/26 10:50:44;;;;;;;7.17;4.77;;;27.00;79.10;28.20;97051.00;;;;5114083;27;20230;-65
2021/09/26 10:53:34;;;;;;;4.82;3.70;;;27.20;78.90;28.30;97044.00;;;;5120564;27;20203;-64
2021/09/26 10:56:26;;;;;;;3.80;3.20;;;27.50;78.70;28.60;97047.00;;;;5108078;27;20222;-64
2021/09/26 10:59:15;;;;;;;4.90;3.50;;;27.60;77.70;28.90;97057.00;;;;5119405;27;20456;-64
2021/09/26 11:02:41;;;;;;;6.30;4.10;;;27.90;77.30;29.10;97056.00;;;;5119212;27;20341;-64
2021/09/26 11:05:42;;;;;;;7.38;4.28;;;28.10;75.10;28.60;97049.00;;;;5110140;27;20188;-65
2021/09/26 11:08:45;;;;;;;3.90;3.45;;;28.40;72.60;28.50;97044.00;;;;5118151;27;20204;-64
2021/09/26 11:11:38;;;;;;;5.32;3.97;;;28.70;70.00;29.20;97042.00;;;;5111725;27;20392;-64
2021/09/26 11:14:28;;;;;;;4.63;3.72;;;28.90;67.40;28.90;97042.00;;;;5118777;27;20208;-64
2021/09/26 11:17:41;;;;;;;5.10;3.50;;;28.90;66.40;29.40;97028.00;;;;5106345;27;20226;-65
2021/09/26 11:20:43;;;;;;;3.92;3.53;;;28.90;68.30;30.00;97028.00;;;;5106745;27;20195;-64
2021/09/26 11:23:37;;;;;;;3.45;3.15;;;29.10;68.70;30.10;97020.00;;;;5107805;27;20244;-65
2021/09/26 11:26:27;;;;;;;4.38;3.97;;;29.30;65.20;30.10;97016.00;;;;5113437;27;20190;-65
2021/09/26 11:29:16;;;;;;;4.78;3.10;;;29.50;66.20;29.60;97015.00;;;;5104524;28;20213;-65
2021/09/26 11:32:07;;;;;;;3.03;2.70;;;29.50;64.10;30.00;97015.00;;;;5113384;27;20228;-64
2021/09/26 11:34:59;;;;;;;2.88;2.67;;;29.60;61.00;30.30;97013.00;;;;5119940;27;20201;-64
2021/09/26 11:37:54;;;;;;;3.83;3.53;;;29.60;62.60;30.70;97015.00;;;;5108362;27;20229;-64
2021/09/26 11:41:01;;;;;;;3.05;2.85;;;29.80;63.10;31.00;97002.00;;;;5104808;27;20218;-64
2021/09/26 11:44:04;;;;;;;3.67;3.38;;;30.00;63.00;30.70;97007.00;;;;5113009;27;20204;-63
2021/09/26 11:46:56;;;;;;;4.55;4.00;;;30.20;62.90;31.10;97000.00;;;;5104316;27;20209;-66
2021/09/26 11:49:44;;;;;;;5.20;3.60;;;30.40;62.60;30.50;96996.00;;;;5111139;27;20684;-66
2021/09/26 11:52:37;;;;;;;3.67;3.38;;;30.60;60.20;31.10;96993.00;;;;5106637;27;20574;-66
2021/09/26 11:55:31;;;;;;;4.97;3.20;;;30.50;59.40;31.40;96993.00;;;;5117875;27;20185;-66
2021/09/26 11:58:20;;;;;;;4.10;3.80;;;30.50;61.70;30.90;96992.00;;;;5114601;27;20221;-66
2021/09/26 12:01:11;;;;;;;3.95;3.63;;;30.60;59.90;31.70;96997.00;;;;5116187;27;20222;-66
2021/09/26 12:04:10;;;;;;;3.88;3.20;;;30.80;60.60;31.50;96992.00;;;;5118348;27;20205;-66
2021/09/26 12:07:01;;;;;;;3.97;3.67;;;30.80;59.00;32.20;96984.00;;;;5112800;27;20198;-65
2021/09/26 12:09:51;;;;;;;5.95;3.83;;;30.90;60.20;32.90;96997.00;;;;5118219;28;20205;-66
2021/09/26 12:12:40;;;;;;;4.22;3.83;;;31.30;60.80;32.50;96989.00;;;;5121374;28;20681;-66
2021/09/26 12:15:29;;;;;;;4.88;3.55;;;31.50;59.50;31.30;96982.00;;;;5130117;27;20209;-67
2021/09/26 12:18:22;;;;;;;4.53;4.13;;;31.70;57.60;31.30;96982.00;;;;5121457;28;20221;-66
2021/09/26 12:21:12;;;;;;;3.20;3.00;;;31.40;56.60;30.20;96987.00;;;;5105671;28;20222;-66
2021/09/26 12:24:07;;;;;;;4.78;3.75;;;31.40;56.90;29.90;96978.00;;;;5116068;27;20672;-65
2021/09/26 12:26:56;;;;;;;4.43;3.40;;;31.10;55.40;31.50;96978.00;;;;5120670;27;20207;-65
2021/09/26 12:29:54;;;;;;;4.90;3.13;;;30.90;56.80;32.10;96976.00;;;;5113112;27;20208;-65
2021/09/26 12:32:53;;;;;;;3.35;3.08;;;31.00;56.70;32.20;96974.00;;;;5119539;27;20217;-65
2021/09/26 12:35:47;;;;;;;3.25;2.95;;;31.20;56.00;32.60;96980.00;;;;5107662;27;20225;-65
2021/09/26 12:38:42;;;;;;;3.63;3.30;;;31.30;55.20;31.90;96981.00;;;;5108921;27;20226;-64
2021/09/26 12:41:38;;;;;;;4.00;3.58;;;31.40;54.40;32.10;96979.00;;;;5109268;27;20393;-65